createdAt,value
2018-03-01T00:00:59.665Z,54.90
2018-03-01T00:03:26.068Z,54.40
2018-03-01T00:05:52.466Z,54.50
2018-03-01T00:08:18.895Z,54.40
2018-03-01T00:10:45.323Z,54.40
2018-03-01T00:13:11.984Z,54.70
2018-03-01T00:15:39.161Z,53.80
2018-03-01T00:18:06.317Z,53.60
2018-03-01T00:20:33.544Z,54.10
2018-03-01T00:23:00.780Z,53.50
2018-03-01T00:25:27.924Z,53.20
2018-03-01T00:27:54.330Z,52.50
2018-03-01T00:30:20.793Z,52.80
2018-03-01T00:32:47.329Z,53.50
2018-03-01T00:35:14.541Z,54.00
2018-03-01T00:37:40.928Z,54.00
2018-03-01T00:40:08.173Z,53.40
2018-03-01T00:42:35.492Z,53.40
2018-03-01T00:45:01.938Z,53.40
2018-03-01T00:47:28.378Z,52.50
2018-03-01T00:49:55.022Z,52.50
2018-03-01T00:52:21.451Z,52.70
2018-03-01T00:54:48.625Z,52.60
2018-03-01T00:57:15.827Z,52.80
2018-03-01T00:59:42.185Z,52.70
2018-03-01T01:02:08.723Z,52.50
2018-03-01T01:04:35.191Z,51.60
2018-03-01T01:07:01.769Z,51.80
2018-03-01T01:09:28.976Z,52.60
2018-03-01T01:11:55.582Z,52.70
2018-03-01T01:14:22.732Z,52.60
2018-03-01T01:16:49.914Z,51.50
2018-03-01T01:19:17.093Z,50.80
2018-03-01T01:21:43.536Z,50.80
2018-03-01T01:24:09.939Z,51.00
2018-03-01T01:26:36.618Z,50.80
2018-03-01T01:29:03.173Z,50.50
2018-03-01T01:31:29.687Z,50.50
2018-03-01T01:33:56.904Z,51.80
2018-03-01T01:36:23.387Z,52.10
2018-03-01T01:38:51.281Z,50.90
2018-03-01T01:41:18.451Z,51.50
2018-03-01T01:43:44.896Z,51.50
2018-03-01T01:46:11.398Z,51.70
2018-03-01T01:48:37.904Z,51.40
2018-03-01T01:51:04.308Z,52.10
2018-03-01T01:53:30.872Z,51.80
2018-03-01T01:55:57.369Z,52.30
2018-03-01T01:58:23.951Z,52.50
2018-03-01T02:00:50.487Z,52.30
2018-03-01T02:03:16.953Z,52.40
2018-03-01T02:05:44.095Z,51.90
2018-03-01T02:08:11.230Z,52.50
2018-03-01T02:10:37.670Z,52.50
2018-03-01T02:13:04.818Z,52.40
2018-03-01T02:15:32.014Z,52.40
2018-03-01T02:17:58.516Z,52.40
2018-03-01T02:20:25.023Z,52.60
2018-03-01T02:22:51.556Z,53.00
2018-03-01T02:25:17.984Z,52.80
2018-03-01T02:27:44.457Z,52.50
2018-03-01T02:30:26.843Z,52.70
2018-03-01T02:32:53.254Z,52.70
2018-03-01T02:35:19.717Z,52.80
2018-03-01T02:37:46.151Z,52.80
2018-03-01T02:40:13.461Z,52.40
2018-03-01T02:42:39.911Z,52.50
2018-03-01T02:45:06.398Z,52.30
2018-03-01T02:47:32.851Z,52.40
2018-03-01T02:49:59.280Z,52.10
2018-03-01T02:52:25.776Z,52.20
2018-03-01T02:54:52.233Z,52.10
2018-03-01T02:57:18.833Z,52.60
2018-03-01T02:59:45.279Z,52.70
2018-03-01T03:02:11.790Z,52.80
2018-03-01T03:04:39.017Z,52.80
2018-03-01T03:07:05.455Z,52.80
2018-03-01T03:09:31.968Z,53.10
2018-03-01T03:11:58.409Z,53.40
2018-03-01T03:14:24.870Z,53.50
2018-03-01T03:16:52.042Z,54.00
2018-03-01T03:19:18.558Z,54.00
2018-03-01T03:21:45.093Z,54.50
2018-03-01T03:24:11.517Z,54.30
2018-03-01T03:26:37.947Z,54.10
2018-03-01T03:29:04.429Z,54.50
2018-03-01T03:31:30.857Z,54.80
2018-03-01T03:33:58.006Z,55.50
2018-03-01T03:36:24.545Z,55.50
2018-03-01T03:38:50.958Z,56.00
2018-03-01T03:41:17.477Z,56.20
2018-03-01T03:43:43.912Z,56.50
2018-03-01T03:46:10.336Z,57.70
2018-03-01T03:48:36.730Z,58.70
2018-03-01T03:51:03.262Z,58.60
2018-03-01T03:53:29.660Z,58.30
2018-03-01T03:55:56.894Z,58.50
2018-03-01T03:58:23.339Z,58.50
2018-03-01T04:00:50.578Z,57.20
2018-03-01T04:03:16.984Z,57.20
2018-03-01T04:05:43.450Z,57.70
2018-03-01T04:08:09.876Z,57.30
2018-03-01T04:10:36.294Z,57.10
2018-03-01T04:13:02.725Z,57.40
2018-03-01T04:15:29.115Z,57.40
2018-03-01T04:17:55.519Z,57.20
2018-03-01T04:20:22.716Z,57.90
2018-03-01T04:22:49.866Z,58.30
2018-03-01T04:25:16.421Z,58.20
2018-03-01T04:27:42.886Z,58.70
2018-03-01T04:30:09.330Z,58.60
2018-03-01T04:32:36.482Z,59.60
2018-03-01T04:35:03.716Z,59.40
2018-03-01T04:37:30.141Z,59.30
2018-03-01T04:39:56.683Z,58.90
2018-03-01T04:42:24.616Z,59.20
2018-03-01T04:44:51.039Z,59.20
2018-03-01T04:47:17.454Z,59.70
2018-03-01T04:49:43.945Z,60.10
2018-03-01T04:52:11.182Z,60.10
2018-03-01T04:54:37.622Z,60.10
2018-03-01T04:57:04.059Z,60.90
2018-03-01T04:59:30.458Z,60.50
2018-03-01T05:01:57.016Z,60.40
2018-03-01T05:04:23.437Z,60.00
2018-03-01T05:06:49.847Z,59.90
2018-03-01T05:09:16.390Z,59.60
2018-03-01T05:11:42.842Z,58.60
2018-03-01T05:14:09.271Z,58.80
2018-03-01T05:16:35.837Z,59.30
2018-03-01T05:19:02.328Z,59.60
2018-03-01T05:21:29.010Z,59.90
2018-03-01T05:23:55.406Z,60.50
2018-03-01T05:26:21.830Z,59.90
2018-03-01T05:28:48.337Z,59.80
2018-03-01T05:31:14.743Z,59.80
2018-03-01T05:33:41.179Z,60.50
2018-03-01T05:36:07.595Z,60.40
2018-03-01T05:38:33.992Z,60.00
2018-03-01T05:41:00.448Z,60.00
2018-03-01T05:43:26.862Z,59.60
2018-03-01T05:45:53.265Z,59.70
2018-03-01T05:48:19.731Z,59.50
2018-03-01T05:50:46.149Z,60.00
2018-03-01T05:53:12.561Z,59.90
2018-03-01T05:55:39.035Z,60.00
2018-03-01T05:58:05.424Z,60.00
2018-03-01T06:00:32.556Z,58.80
2018-03-01T06:02:58.974Z,58.80
2018-03-01T06:05:25.414Z,58.80
2018-03-01T06:07:51.837Z,58.80
2018-03-01T06:10:18.485Z,59.40
2018-03-01T06:12:45.020Z,59.40
2018-03-01T06:15:11.534Z,59.20
2018-03-01T06:17:37.943Z,59.30
2018-03-01T06:20:04.523Z,58.90
2018-03-01T06:22:30.952Z,58.30
2018-03-01T06:24:57.441Z,58.10
2018-03-01T06:27:23.897Z,57.20
2018-03-01T06:29:50.384Z,56.90
2018-03-01T06:32:16.869Z,56.60
2018-03-01T06:34:43.292Z,55.30
2018-03-01T06:37:09.699Z,55.10
2018-03-01T06:39:36.187Z,55.20
2018-03-01T06:42:02.735Z,55.10
2018-03-01T06:44:29.139Z,53.70
2018-03-01T06:46:55.608Z,54.10
2018-03-01T06:49:22.799Z,53.70
2018-03-01T06:51:49.208Z,53.70
2018-03-01T06:54:16.349Z,52.60
2018-03-01T06:56:43.489Z,52.50
2018-03-01T06:59:09.910Z,52.40
2018-03-01T07:01:36.395Z,52.10
2018-03-01T07:04:02.799Z,51.50
2018-03-01T07:06:29.919Z,51.40
2018-03-01T07:08:57.178Z,51.40
2018-03-01T07:11:24.342Z,50.20
2018-03-01T07:13:51.552Z,50.00
2018-03-01T07:16:17.973Z,49.90
2018-03-01T07:18:44.418Z,49.30
2018-03-01T07:21:10.816Z,49.00
2018-03-01T07:23:37.247Z,47.70
2018-03-01T07:26:03.630Z,46.90
2018-03-01T07:28:30.173Z,47.10
2018-03-01T07:30:56.603Z,46.70
2018-03-01T07:33:23.140Z,45.70
2018-03-01T07:35:49.511Z,45.00
2018-03-01T07:38:15.967Z,45.00
2018-03-01T07:40:42.519Z,44.20
2018-03-01T07:43:09.157Z,43.00
2018-03-01T07:45:35.661Z,42.40
2018-03-01T07:48:02.086Z,41.90
2018-03-01T07:50:28.467Z,41.00
2018-03-01T07:52:55.018Z,40.50
2018-03-01T07:55:22.177Z,37.50
2018-03-01T07:57:48.555Z,37.50
2018-03-01T08:00:14.987Z,36.30
2018-03-01T08:02:41.387Z,35.20
2018-03-01T08:05:08.524Z,35.10
2018-03-01T08:07:35.716Z,34.90
2018-03-01T08:10:02.118Z,34.80
2018-03-01T08:12:28.484Z,34.20
2018-03-01T08:14:55.068Z,34.00
2018-03-01T08:17:22.198Z,33.90
2018-03-01T08:19:48.730Z,33.90
2018-03-01T08:22:15.203Z,33.30
2018-03-01T08:24:42.535Z,31.10
2018-03-01T08:27:08.920Z,30.90
2018-03-01T08:29:35.371Z,30.30
2018-03-01T08:32:01.767Z,29.00
2018-03-01T08:34:28.264Z,27.70
2018-03-01T08:36:54.803Z,27.20
2018-03-01T08:39:21.964Z,24.60
2018-03-01T08:41:48.587Z,24.60
2018-03-01T08:44:15.021Z,23.90
2018-03-01T08:46:44.189Z,24.10
2018-03-01T08:49:10.617Z,23.40
2018-03-01T08:51:37.234Z,22.40
2018-03-01T08:54:03.737Z,22.80
2018-03-01T08:56:30.188Z,24.00
2018-03-01T08:58:56.618Z,25.40
2018-03-01T09:01:23.033Z,26.50
2018-03-01T09:03:50.244Z,27.40
2018-03-01T09:06:16.671Z,27.30
2018-03-01T09:08:43.066Z,27.80
2018-03-01T09:11:09.546Z,27.30
2018-03-01T09:13:35.967Z,26.90
2018-03-01T09:16:02.364Z,25.80
2018-03-01T09:18:28.769Z,24.80
2018-03-01T09:20:55.233Z,25.00
2018-03-01T09:23:21.666Z,24.70
2018-03-01T09:25:48.080Z,24.10
2018-03-01T09:28:15.726Z,23.30
2018-03-01T09:30:42.138Z,23.30
2018-03-01T09:33:08.555Z,23.80
2018-03-01T09:35:34.969Z,23.80
2018-03-01T09:38:01.459Z,23.90
2018-03-01T09:40:27.884Z,24.70
2018-03-01T09:42:54.305Z,25.40
2018-03-01T09:45:20.741Z,26.50
2018-03-01T09:47:47.169Z,27.40
2018-03-01T09:50:13.673Z,29.00
2018-03-01T09:52:40.068Z,29.80
2018-03-01T09:55:06.450Z,30.60
2018-03-01T09:57:32.886Z,31.40
2018-03-01T09:59:59.299Z,31.70
2018-03-01T10:02:25.677Z,32.10
2018-03-01T10:04:52.149Z,32.60
2018-03-01T10:07:19.318Z,33.90
2018-03-01T10:09:45.907Z,33.80
2018-03-01T10:12:12.441Z,33.80
2018-03-01T10:14:38.844Z,33.90
2018-03-01T10:17:05.242Z,33.70
2018-03-01T10:19:31.660Z,33.70
2018-03-01T10:21:58.793Z,33.90
2018-03-01T10:24:25.962Z,33.70
2018-03-01T10:26:53.148Z,33.50
2018-03-01T10:29:19.706Z,33.40
2018-03-01T10:31:46.214Z,34.00
2018-03-01T10:34:12.639Z,33.60
2018-03-01T10:36:39.043Z,33.60
2018-03-01T10:39:06.236Z,33.40
2018-03-01T10:41:32.711Z,33.40
2018-03-01T10:43:59.116Z,33.30
2018-03-01T10:46:25.506Z,33.40
2018-03-01T10:48:51.924Z,33.60
2018-03-01T10:51:18.956Z,33.40
2018-03-01T10:53:46.102Z,33.60
2018-03-01T10:56:12.703Z,33.60
2018-03-01T10:58:39.123Z,33.70
2018-03-01T11:01:06.324Z,33.00
2018-03-01T11:03:32.943Z,32.90
2018-03-01T11:05:59.314Z,32.80
2018-03-01T11:08:26.450Z,33.20
2018-03-01T11:10:52.908Z,33.20
2018-03-01T11:13:19.716Z,32.70
2018-03-01T11:15:46.176Z,33.00
2018-03-01T11:18:13.344Z,32.10
2018-03-01T11:20:39.833Z,32.10
2018-03-01T11:23:06.242Z,32.70
2018-03-01T11:25:32.646Z,32.70
2018-03-01T11:27:59.103Z,32.30
2018-03-01T11:30:25.508Z,31.90
2018-03-01T11:32:52.644Z,31.80
2018-03-01T11:35:19.040Z,31.80
2018-03-01T11:37:45.454Z,32.00
2018-03-01T11:40:12.102Z,32.20
2018-03-01T11:42:38.657Z,31.80
2018-03-01T11:45:05.815Z,31.80
2018-03-01T11:47:32.317Z,31.80
2018-03-01T11:49:58.715Z,31.90
2018-03-01T11:52:25.152Z,31.70
2018-03-01T11:54:51.611Z,31.20
2018-03-01T11:57:18.058Z,31.20
2018-03-01T11:59:44.458Z,32.30
2018-03-01T12:02:10.945Z,31.20
2018-03-01T12:04:37.401Z,31.30
2018-03-01T12:07:04.539Z,31.10
2018-03-01T12:09:31.761Z,30.70
2018-03-01T12:11:58.171Z,30.70
2018-03-01T12:14:24.572Z,30.60
2018-03-01T12:16:51.022Z,30.30
2018-03-01T12:19:17.432Z,30.70
2018-03-01T12:21:43.820Z,30.80
2018-03-01T12:24:10.260Z,30.80
2018-03-01T12:26:36.691Z,30.60
2018-03-01T12:29:03.230Z,30.30
2018-03-01T12:31:29.663Z,30.30
2018-03-01T12:33:56.065Z,30.50
2018-03-01T12:36:22.630Z,30.10
2018-03-01T12:38:49.844Z,30.60
2018-03-01T12:41:16.240Z,30.50
2018-03-01T12:43:42.662Z,30.40
2018-03-01T12:46:10.050Z,30.20
2018-03-01T12:48:36.457Z,30.20
2018-03-01T12:51:03.627Z,29.70
2018-03-01T12:53:30.125Z,29.70
2018-03-01T12:55:56.714Z,29.60
2018-03-01T12:58:23.215Z,29.60
2018-03-01T13:00:50.474Z,29.30
2018-03-01T13:03:17.628Z,29.40
2018-03-01T13:05:44.756Z,29.60
2018-03-01T13:08:11.226Z,29.60
2018-03-01T13:10:37.695Z,29.30
2018-03-01T13:13:04.244Z,29.00
2018-03-01T13:15:31.093Z,29.10
2018-03-01T13:17:57.672Z,29.10
2018-03-01T13:20:24.109Z,29.10
2018-03-01T13:22:50.619Z,29.10
2018-03-01T13:25:17.945Z,28.50
2018-03-01T13:27:45.120Z,29.40
2018-03-01T13:30:28.245Z,29.00
2018-03-01T13:32:55.772Z,29.00
2018-03-01T13:35:25.085Z,29.40
2018-03-01T13:37:52.335Z,29.00
2018-03-01T13:40:18.811Z,28.90
2018-03-01T13:42:50.279Z,29.00
2018-03-01T13:45:16.775Z,29.00
2018-03-01T13:47:44.809Z,28.80
2018-03-01T13:50:11.252Z,28.80
2018-03-01T13:52:37.739Z,28.80
2018-03-01T13:55:04.426Z,28.70
2018-03-01T13:57:30.887Z,28.50
2018-03-01T13:59:57.478Z,28.80
2018-03-01T14:02:24.124Z,28.90
2018-03-01T14:04:50.771Z,28.90
2018-03-01T14:07:17.211Z,28.90
2018-03-01T14:09:43.649Z,28.60
2018-03-01T14:12:12.227Z,28.60
2018-03-01T14:14:39.503Z,28.80
2018-03-01T14:17:06.685Z,28.60
2018-03-01T14:19:39.356Z,28.60
2018-03-01T14:25:13.631Z,28.50
2018-03-01T14:27:52.291Z,29.00
2018-03-01T14:30:22.507Z,28.80
2018-03-01T14:32:49.672Z,28.80
2018-03-01T14:35:16.241Z,28.70
2018-03-01T14:37:42.803Z,28.60
2018-03-01T14:40:09.979Z,28.60
2018-03-01T14:42:36.409Z,29.00
2018-03-01T14:45:03.600Z,28.60
2018-03-01T14:47:30.009Z,28.60
2018-03-01T14:49:56.408Z,28.70
2018-03-01T14:52:23.654Z,29.10
2018-03-01T14:54:50.064Z,28.70
2018-03-01T14:57:16.456Z,28.70
2018-03-01T14:59:42.954Z,28.70
2018-03-01T15:02:10.839Z,29.00
2018-03-01T15:04:37.239Z,29.00
2018-03-01T15:07:03.905Z,29.00
2018-03-01T15:09:31.057Z,28.90
2018-03-01T15:11:57.446Z,28.90
2018-03-01T15:14:25.368Z,29.10
2018-03-01T15:16:59.583Z,29.10
2018-03-01T15:19:26.195Z,29.10
2018-03-01T15:21:53.530Z,29.10
2018-03-01T15:24:21.467Z,29.10
2018-03-01T15:26:48.030Z,29.10
2018-03-01T15:29:14.367Z,29.00
2018-03-01T15:31:40.789Z,28.70
2018-03-01T15:34:07.236Z,28.90
2018-03-01T15:36:33.628Z,28.90
2018-03-01T15:39:00.112Z,28.60
2018-03-01T15:41:26.560Z,28.60
2018-03-01T15:43:53.716Z,29.00
2018-03-01T15:46:20.950Z,28.70
2018-03-01T15:48:47.411Z,28.70
2018-03-01T15:51:13.915Z,28.80
2018-03-01T15:53:41.072Z,28.90
2018-03-01T15:56:07.505Z,28.90
2018-03-01T15:58:34.689Z,29.50
2018-03-01T16:01:01.160Z,29.10
2018-03-01T16:03:27.718Z,29.10
2018-03-01T16:05:54.112Z,28.90
2018-03-01T16:08:20.526Z,29.00
2018-03-01T16:10:46.983Z,29.20
2018-03-01T16:13:13.409Z,29.30
2018-03-01T16:15:39.843Z,29.20
2018-03-01T16:18:06.521Z,29.40
2018-03-01T16:20:32.945Z,29.30
2018-03-01T16:22:59.359Z,29.60
2018-03-01T16:25:25.812Z,29.40
2018-03-01T16:27:52.191Z,29.40
2018-03-01T16:30:18.604Z,29.50
2018-03-01T16:32:45.859Z,29.70
2018-03-01T16:35:12.310Z,29.70
2018-03-01T16:37:38.914Z,29.70
2018-03-01T16:40:06.265Z,29.80
2018-03-01T16:42:33.439Z,29.80
2018-03-01T16:45:00.048Z,29.60
2018-03-01T16:47:27.290Z,30.00
2018-03-01T16:49:53.771Z,30.00
2018-03-01T16:52:20.294Z,30.00
2018-03-01T16:54:46.734Z,30.00
2018-03-01T16:57:13.184Z,30.10
2018-03-01T16:59:39.599Z,30.10
2018-03-01T17:02:06.109Z,30.00
2018-03-01T17:04:32.547Z,30.00
2018-03-01T17:06:59.047Z,30.00
2018-03-01T17:09:25.489Z,29.80
2018-03-01T17:11:51.892Z,30.00
2018-03-01T17:14:18.480Z,30.00
2018-03-01T17:16:45.660Z,30.20
2018-03-01T17:19:12.240Z,30.20
2018-03-01T17:21:39.426Z,30.50
2018-03-01T17:24:06.636Z,30.40
2018-03-01T17:26:33.053Z,30.30
2018-03-01T17:28:59.469Z,30.40
2018-03-01T17:31:25.919Z,30.50
2018-03-01T17:33:52.335Z,30.70
2018-03-01T17:36:18.799Z,30.80
2018-03-01T17:38:45.292Z,30.80
2018-03-01T17:41:12.435Z,30.60
2018-03-01T17:43:38.885Z,30.60
2018-03-01T17:46:05.397Z,30.80
2018-03-01T17:48:31.832Z,30.90
2018-03-01T17:50:58.340Z,30.90
2018-03-01T17:53:24.870Z,30.90
2018-03-01T17:55:51.424Z,31.00
2018-03-01T17:58:18.601Z,31.20
2018-03-01T18:00:45.203Z,31.10
2018-03-01T18:03:11.736Z,31.30
2018-03-01T18:05:38.250Z,31.20
2018-03-01T18:08:04.708Z,31.30
2018-03-01T18:10:31.170Z,31.40
2018-03-01T18:12:57.778Z,31.40
2018-03-01T18:15:25.030Z,31.70
2018-03-01T18:17:51.460Z,31.70
2018-03-01T18:20:17.896Z,31.80
2018-03-01T18:22:44.385Z,31.90
2018-03-01T18:25:10.819Z,31.80
2018-03-01T18:27:37.265Z,32.10
2018-03-01T18:30:03.750Z,32.00
2018-03-01T18:32:30.170Z,32.00
2018-03-01T18:34:56.636Z,31.90
2018-03-01T18:37:23.097Z,32.00
2018-03-01T18:39:49.517Z,32.10
2018-03-01T18:42:22.894Z,32.10
2018-03-01T18:44:49.599Z,32.30
2018-03-01T18:47:16.806Z,32.20
2018-03-01T18:49:43.336Z,32.10
2018-03-01T18:52:09.920Z,32.50
2018-03-01T18:54:37.271Z,32.60
2018-03-01T18:57:03.885Z,32.60
2018-03-01T18:59:37.408Z,32.70
2018-03-01T19:02:04.040Z,32.60
2018-03-01T19:04:30.466Z,32.90
2018-03-01T19:06:56.912Z,33.00
2018-03-01T19:09:23.429Z,32.80
2018-03-01T19:11:49.861Z,32.30
2018-03-01T19:14:16.287Z,32.40
2018-03-01T19:16:43.394Z,32.10
2018-03-01T19:19:10.643Z,32.20
2018-03-01T19:21:37.248Z,32.30
2018-03-01T19:24:04.479Z,32.10
2018-03-01T19:26:30.929Z,32.00
2018-03-01T19:28:58.392Z,32.30
2018-03-01T19:31:25.723Z,32.30
2018-03-01T19:33:52.195Z,32.30
2018-03-01T19:36:19.384Z,32.30
2018-03-01T19:38:47.039Z,32.20
2018-03-01T19:41:14.553Z,32.50
2018-03-01T19:43:41.907Z,32.30
2018-03-01T19:46:08.337Z,32.30
2018-03-01T19:48:34.745Z,32.30
2018-03-01T19:51:01.198Z,32.30
2018-03-01T19:53:27.739Z,32.50
2018-03-01T19:55:54.188Z,32.60
2018-03-01T19:58:21.359Z,32.50
2018-03-01T20:00:47.860Z,32.50
2018-03-01T20:03:14.369Z,32.60
2018-03-01T20:05:40.831Z,32.70
2018-03-01T20:08:08.025Z,33.00
2018-03-01T20:10:34.521Z,33.00
2018-03-01T20:13:01.969Z,33.10
2018-03-01T20:15:28.435Z,33.10
2018-03-01T20:17:54.904Z,33.30
2018-03-01T20:20:21.344Z,33.10
2018-03-01T20:22:47.788Z,33.40
2018-03-01T20:25:14.343Z,33.30
2018-03-01T20:27:40.784Z,33.50
2018-03-01T20:30:08.970Z,33.80
2018-03-01T20:32:35.479Z,33.80
2018-03-01T20:35:02.019Z,33.80
2018-03-01T20:37:29.223Z,33.80
2018-03-01T20:39:55.695Z,33.80
2018-03-01T20:42:22.079Z,34.00
2018-03-01T20:44:48.532Z,34.10
2018-03-01T20:47:15.072Z,34.20
2018-03-01T20:49:41.503Z,33.90
2018-03-01T20:52:07.936Z,34.10
2018-03-01T20:54:34.331Z,34.40
2018-03-01T20:57:00.761Z,34.50
2018-03-01T20:59:27.927Z,34.50
2018-03-01T21:01:54.327Z,34.50
2018-03-01T21:04:20.794Z,34.50
2018-03-01T21:06:47.292Z,34.60
2018-03-01T21:09:13.690Z,35.10
2018-03-01T21:11:41.628Z,35.40
2018-03-01T21:14:08.093Z,35.40
2018-03-01T21:16:34.502Z,35.80
2018-03-01T21:19:00.959Z,36.10
2018-03-01T21:21:27.617Z,36.10
2018-03-01T21:23:54.155Z,36.00
2018-03-01T21:26:20.617Z,36.10
2018-03-01T21:28:47.227Z,36.30
2018-03-01T21:31:14.451Z,36.70
2018-03-01T21:33:40.864Z,36.60
2018-03-01T21:36:07.312Z,36.60
2018-03-01T21:38:33.879Z,36.80
2018-03-01T21:41:00.294Z,36.90
2018-03-01T21:43:26.742Z,36.70
2018-03-01T21:45:53.280Z,37.00
2018-03-01T21:48:20.610Z,37.30
2018-03-01T21:50:47.079Z,37.20
2018-03-01T21:53:14.261Z,37.20
2018-03-01T21:55:40.705Z,37.20
2018-03-01T21:58:07.142Z,37.20
2018-03-01T22:00:33.617Z,37.10
2018-03-01T22:03:00.061Z,37.30
2018-03-01T22:05:27.504Z,37.50
2018-03-01T22:07:54.656Z,37.70
2018-03-01T22:10:21.064Z,37.70
2018-03-01T22:12:47.577Z,37.60
2018-03-01T22:15:14.059Z,37.40
2018-03-01T22:17:40.442Z,37.60
2018-03-01T22:20:06.927Z,37.40
2018-03-01T22:22:33.295Z,37.50
2018-03-01T22:24:59.789Z,37.60
2018-03-01T22:27:26.261Z,37.50
2018-03-01T22:29:52.750Z,37.40
2018-03-01T22:32:19.156Z,37.50
2018-03-01T22:34:45.724Z,37.30
2018-03-01T22:37:13.084Z,37.30
2018-03-01T22:39:39.575Z,37.30
2018-03-01T22:42:06.047Z,37.50
2018-03-01T22:44:32.475Z,37.40
2018-03-01T22:46:58.889Z,37.50
2018-03-01T22:49:25.306Z,37.40
2018-03-01T22:51:51.781Z,37.30
2018-03-01T22:54:18.184Z,37.30
2018-03-01T22:56:44.661Z,37.40
2018-03-01T22:59:11.047Z,37.70
2018-03-01T23:01:37.476Z,37.80
2018-03-01T23:04:04.046Z,37.90
2018-03-01T23:06:30.487Z,38.20
2018-03-01T23:08:57.016Z,37.90
2018-03-01T23:11:24.263Z,38.00
2018-03-01T23:13:50.801Z,38.00
2018-03-01T23:16:17.233Z,38.10
2018-03-01T23:18:43.774Z,38.00
2018-03-01T23:21:10.180Z,38.30
2018-03-01T23:23:37.333Z,38.60
2018-03-01T23:26:03.866Z,38.50
2018-03-01T23:28:30.277Z,38.80
2018-03-01T23:30:56.658Z,38.80
2018-03-01T23:33:23.075Z,38.70
2018-03-01T23:35:50.969Z,39.10
2018-03-01T23:38:18.201Z,39.00
2018-03-01T23:40:44.594Z,38.90
2018-03-01T23:43:11.025Z,39.00
2018-03-01T23:45:37.438Z,38.70
2018-03-01T23:48:04.584Z,39.30
2018-03-01T23:50:31.720Z,39.30
2018-03-01T23:52:58.180Z,39.30
2018-03-01T23:55:24.629Z,39.40
2018-03-01T23:57:51.173Z,39.70
